createdAt,value
2017-10-19T00:00:33.382Z,39.27
2017-10-19T00:03:01.765Z,35.80
2017-10-19T00:05:29.305Z,34.00
2017-10-19T00:07:57.849Z,30.67
2017-10-19T00:10:25.416Z,29.43
2017-10-19T00:12:53.018Z,29.03
2017-10-19T00:15:20.879Z,30.90
2017-10-19T00:17:49.248Z,32.47
2017-10-19T00:20:17.718Z,31.23
2017-10-19T00:22:45.298Z,28.60
2017-10-19T00:25:13.646Z,23.50
2017-10-19T00:27:41.204Z,24.10
2017-10-19T00:30:08.763Z,28.77
2017-10-19T00:32:36.303Z,30.63
2017-10-19T00:35:03.902Z,30.97
2017-10-19T00:37:31.508Z,30.90
2017-10-19T00:39:59.833Z,32.03
2017-10-19T00:42:27.441Z,31.00
2017-10-19T00:44:55.047Z,30.77
2017-10-19T00:47:22.611Z,27.90
2017-10-19T00:49:50.147Z,24.90
2017-10-19T00:52:18.934Z,27.20
2017-10-19T00:54:46.486Z,26.47
2017-10-19T00:57:14.042Z,25.80
2017-10-19T00:59:41.626Z,25.30
2017-10-19T01:02:09.203Z,26.80
2017-10-19T01:04:37.514Z,27.33
2017-10-19T01:07:05.096Z,28.00
2017-10-19T01:09:32.660Z,25.73
2017-10-19T01:12:00.221Z,27.13
2017-10-19T01:14:27.780Z,25.70
2017-10-19T01:16:55.327Z,29.53
2017-10-19T01:19:22.919Z,32.50
2017-10-19T01:21:50.486Z,30.80
2017-10-19T01:24:18.067Z,31.50
2017-10-19T01:26:45.609Z,26.67
2017-10-19T01:29:13.216Z,27.00
2017-10-19T01:31:40.842Z,26.80
2017-10-19T01:34:08.412Z,25.87
2017-10-19T01:36:36.002Z,28.97
2017-10-19T01:39:03.607Z,26.43
2017-10-19T01:41:31.247Z,30.47
2017-10-19T01:43:58.786Z,28.90
2017-10-19T01:46:26.357Z,31.53
2017-10-19T01:48:53.930Z,26.47
2017-10-19T01:51:21.536Z,27.47
2017-10-19T01:53:49.857Z,27.63
2017-10-19T01:56:17.444Z,29.50
2017-10-19T01:58:44.987Z,28.60
2017-10-19T02:01:12.557Z,25.70
2017-10-19T02:03:40.118Z,28.10
2017-10-19T02:06:07.672Z,31.93
2017-10-19T02:08:35.280Z,32.43
2017-10-19T02:11:02.863Z,30.97
2017-10-19T02:13:31.202Z,29.53
2017-10-19T02:15:58.785Z,27.60
2017-10-19T02:18:26.378Z,28.47
2017-10-19T02:20:54.718Z,29.03
2017-10-19T02:23:22.251Z,30.63
2017-10-19T02:25:49.835Z,30.00
2017-10-19T02:28:17.390Z,31.83
2017-10-19T02:30:44.991Z,29.13
2017-10-19T02:33:12.524Z,27.93
2017-10-19T02:35:40.097Z,30.47
2017-10-19T02:38:07.637Z,28.90
2017-10-19T02:40:35.191Z,29.70
2017-10-19T02:43:02.729Z,32.00
2017-10-19T02:45:31.062Z,32.60
2017-10-19T02:47:58.625Z,29.77
2017-10-19T02:50:26.199Z,30.20
2017-10-19T02:52:53.756Z,26.40
2017-10-19T02:55:21.296Z,29.80
2017-10-19T02:57:48.883Z,30.53
2017-10-19T03:00:16.465Z,25.87
2017-10-19T03:02:44.029Z,25.77
2017-10-19T03:05:11.612Z,23.23
2017-10-19T03:07:39.189Z,22.83
2017-10-19T03:10:06.752Z,23.70
2017-10-19T03:12:34.296Z,24.30
2017-10-19T03:15:01.862Z,25.20
2017-10-19T03:17:29.646Z,22.03
2017-10-19T03:19:57.246Z,23.33
2017-10-19T03:22:25.584Z,22.27
2017-10-19T03:24:53.935Z,22.20
2017-10-19T03:27:21.485Z,23.80
2017-10-19T03:29:49.067Z,25.10
2017-10-19T03:32:16.667Z,23.47
2017-10-19T03:34:44.192Z,24.40
2017-10-19T03:37:11.748Z,21.67
2017-10-19T03:39:39.324Z,22.90
2017-10-19T03:42:06.900Z,24.70
2017-10-19T03:44:34.486Z,23.67
2017-10-19T03:47:02.048Z,22.77
2017-10-19T03:49:29.623Z,22.17
2017-10-19T03:51:57.195Z,22.10
2017-10-19T03:54:24.743Z,21.60
2017-10-19T03:56:52.313Z,20.57
2017-10-19T03:59:19.868Z,18.87
2017-10-19T04:01:47.517Z,19.90
2017-10-19T04:04:15.081Z,18.60
2017-10-19T04:06:42.642Z,17.20
2017-10-19T04:09:10.226Z,17.30
2017-10-19T04:11:37.752Z,16.77
2017-10-19T04:14:05.333Z,15.00
2017-10-19T04:16:32.876Z,17.43
2017-10-19T04:19:00.447Z,16.70
2017-10-19T04:21:28.001Z,19.00
2017-10-19T04:23:55.536Z,16.53
2017-10-19T04:26:23.120Z,16.53
2017-10-19T04:28:50.701Z,15.70
2017-10-19T04:31:18.243Z,15.17
2017-10-19T04:33:46.553Z,17.00
2017-10-19T04:36:14.098Z,17.20
2017-10-19T04:38:41.638Z,16.10
2017-10-19T04:41:09.242Z,17.50
2017-10-19T04:43:36.807Z,17.40
2017-10-19T04:46:04.497Z,18.10
2017-10-19T04:48:32.084Z,17.57
2017-10-19T04:50:59.632Z,19.37
2017-10-19T04:53:27.211Z,18.90
2017-10-19T04:55:54.853Z,17.13
2017-10-19T04:58:23.648Z,18.23
2017-10-19T05:00:51.234Z,17.50
2017-10-19T05:03:18.786Z,18.50
2017-10-19T05:05:46.396Z,19.40
2017-10-19T05:08:14.716Z,19.53
2017-10-19T05:10:42.359Z,15.73
2017-10-19T05:13:10.821Z,15.77
2017-10-19T05:15:39.209Z,15.10
2017-10-19T05:18:07.565Z,14.57
2017-10-19T05:20:35.893Z,14.47
2017-10-19T05:23:03.532Z,16.53
2017-10-19T05:25:31.073Z,14.40
2017-10-19T05:27:58.641Z,15.80
2017-10-19T05:30:26.216Z,16.27
2017-10-19T05:32:54.610Z,15.98
2017-10-19T05:35:22.160Z,16.08
2017-10-19T05:37:49.720Z,16.40
2017-10-19T05:40:17.299Z,14.77
2017-10-19T05:42:45.669Z,15.43
2017-10-19T05:45:13.271Z,15.57
2017-10-19T05:47:40.873Z,14.60
2017-10-19T05:50:08.476Z,14.30
2017-10-19T05:52:37.072Z,16.03
2017-10-19T05:55:04.716Z,13.70
2017-10-19T05:57:32.286Z,13.33
2017-10-19T05:59:59.865Z,14.70
2017-10-19T06:02:27.418Z,15.00
2017-10-19T06:04:55.049Z,14.37
2017-10-19T06:07:22.621Z,11.83
2017-10-19T06:09:50.186Z,12.32
2017-10-19T06:12:18.539Z,12.03
2017-10-19T06:14:46.125Z,11.40
2017-10-19T06:17:13.705Z,10.80
2017-10-19T06:19:41.285Z,9.83
2017-10-19T06:22:09.097Z,9.47
2017-10-19T06:24:36.653Z,8.33
2017-10-19T06:27:04.394Z,7.70
2017-10-19T06:29:33.547Z,8.20
2017-10-19T06:32:01.129Z,7.57
2017-10-19T06:34:29.598Z,8.50
2017-10-19T06:36:57.473Z,8.10
2017-10-19T06:39:25.166Z,8.07
2017-10-19T06:41:53.695Z,8.60
2017-10-19T06:44:21.985Z,8.10
2017-10-19T06:46:50.286Z,7.77
2017-10-19T06:49:17.824Z,6.80
2017-10-19T06:51:55.314Z,7.33
2017-10-19T06:54:23.606Z,7.20
2017-10-19T06:56:51.165Z,7.70
2017-10-19T06:59:19.483Z,6.40
2017-10-19T07:01:47.019Z,6.97
2017-10-19T07:04:14.560Z,6.60
2017-10-19T07:06:42.154Z,6.57
2017-10-19T07:09:09.702Z,7.10
2017-10-19T07:11:37.487Z,6.27
2017-10-19T07:14:05.091Z,6.63
2017-10-19T07:16:32.647Z,6.90
2017-10-19T07:19:00.192Z,6.40
2017-10-19T07:21:27.738Z,6.80
2017-10-19T07:23:56.028Z,6.60
2017-10-19T07:26:23.618Z,6.50
2017-10-19T07:28:51.162Z,6.17
2017-10-19T07:31:18.727Z,6.07
2017-10-19T07:33:46.276Z,6.23
2017-10-19T07:36:15.658Z,5.50
2017-10-19T07:38:43.193Z,5.57
2017-10-19T07:41:10.768Z,5.53
2017-10-19T07:43:38.344Z,5.83
2017-10-19T07:46:05.921Z,6.97
2017-10-19T07:48:33.473Z,6.43
2017-10-19T07:51:02.073Z,5.00
2017-10-19T07:53:29.615Z,6.50
2017-10-19T07:55:57.185Z,5.90
2017-10-19T07:58:25.740Z,6.90
2017-10-19T08:00:53.283Z,5.77
2017-10-19T08:03:20.864Z,5.67
2017-10-19T08:05:48.403Z,6.17
2017-10-19T08:08:15.946Z,5.73
2017-10-19T08:10:44.288Z,6.23
2017-10-19T08:13:11.907Z,5.73
2017-10-19T08:15:39.463Z,5.73
2017-10-19T08:18:07.871Z,6.13
2017-10-19T08:20:36.205Z,6.37
2017-10-19T08:23:03.754Z,5.70
2017-10-19T08:25:31.339Z,5.97
2017-10-19T08:27:58.888Z,5.60
2017-10-19T08:30:27.436Z,5.73
2017-10-19T08:32:55.210Z,6.07
2017-10-19T08:35:22.723Z,5.60
2017-10-19T08:37:50.271Z,5.30
2017-10-19T08:40:17.803Z,5.50
2017-10-19T08:42:45.356Z,5.20
2017-10-19T08:45:13.664Z,5.77
2017-10-19T08:47:41.243Z,6.00
2017-10-19T08:50:08.789Z,4.57
2017-10-19T08:52:36.365Z,5.50
2017-10-19T08:55:07.774Z,5.80
2017-10-19T08:57:36.113Z,5.40
2017-10-19T09:00:03.658Z,4.80
2017-10-19T09:02:31.207Z,5.13
2017-10-19T09:04:58.792Z,4.63
2017-10-19T09:07:26.383Z,5.00
2017-10-19T09:09:53.918Z,4.97
2017-10-19T09:12:21.564Z,4.90
2017-10-19T09:14:49.165Z,5.20
2017-10-19T09:17:16.703Z,4.73
2017-10-19T09:19:44.254Z,4.10
2017-10-19T09:22:11.846Z,5.10
2017-10-19T09:24:39.388Z,4.93
2017-10-19T09:27:07.005Z,5.07
2017-10-19T09:29:34.558Z,4.50
2017-10-19T09:32:02.128Z,4.23
2017-10-19T09:34:29.734Z,4.17
2017-10-19T09:36:58.065Z,4.50
2017-10-19T09:39:25.640Z,4.20
2017-10-19T09:41:53.201Z,5.27
2017-10-19T09:44:20.757Z,4.30
2017-10-19T09:46:48.327Z,4.00
2017-10-19T09:49:15.884Z,4.57
2017-10-19T09:51:43.413Z,4.83
2017-10-19T09:54:10.957Z,5.13
2017-10-19T09:56:39.264Z,5.07
2017-10-19T09:59:06.845Z,5.57
2017-10-19T10:01:34.406Z,5.40
2017-10-19T10:04:01.973Z,5.20
2017-10-19T10:06:29.509Z,5.00
2017-10-19T10:08:57.074Z,4.90
2017-10-19T10:11:25.402Z,5.77
2017-10-19T10:13:52.962Z,5.57
2017-10-19T10:16:20.507Z,5.47
2017-10-19T10:18:48.107Z,5.60
2017-10-19T10:21:15.672Z,5.30
2017-10-19T10:23:43.211Z,5.37
2017-10-19T10:26:10.797Z,5.10
2017-10-19T10:28:38.424Z,4.97
2017-10-19T10:31:05.993Z,4.80
2017-10-19T10:33:33.519Z,5.03
2017-10-19T10:36:01.868Z,4.97
2017-10-19T10:38:29.443Z,4.67
2017-10-19T10:40:56.992Z,4.80
2017-10-19T10:43:24.543Z,4.33
2017-10-19T10:45:52.301Z,4.90
2017-10-19T10:48:19.881Z,5.40
2017-10-19T10:50:47.928Z,4.43
2017-10-19T10:53:15.541Z,4.77
2017-10-19T10:55:43.134Z,4.90
2017-10-19T10:58:10.773Z,5.60
2017-10-19T11:00:38.394Z,5.10
2017-10-19T11:03:06.785Z,4.97
2017-10-19T11:05:34.381Z,4.00
2017-10-19T11:08:01.976Z,5.00
2017-10-19T11:10:29.642Z,4.60
2017-10-19T11:12:57.307Z,4.97
2017-10-19T11:15:24.870Z,5.30
2017-10-19T11:17:52.474Z,5.67
2017-10-19T11:20:20.242Z,5.00
2017-10-19T11:22:47.804Z,5.33
2017-10-19T11:25:17.123Z,6.20
2017-10-19T11:27:44.713Z,5.60
2017-10-19T11:30:13.007Z,5.50
2017-10-19T11:32:40.830Z,4.93
2017-10-19T11:35:08.628Z,6.10
2017-10-19T11:37:37.270Z,4.93
2017-10-19T11:40:06.166Z,5.20
2017-10-19T11:42:35.326Z,5.40
2017-10-19T11:45:03.032Z,6.07
2017-10-19T11:47:32.346Z,6.40
2017-10-19T11:50:00.694Z,5.57
2017-10-19T11:52:28.296Z,7.37
2017-10-19T11:54:55.856Z,7.50
2017-10-19T11:57:24.217Z,6.87
2017-10-19T11:59:51.796Z,8.73
2017-10-19T12:02:20.264Z,10.30
2017-10-19T12:04:47.824Z,9.13
2017-10-19T12:07:15.434Z,9.87
2017-10-19T12:09:43.026Z,10.73
2017-10-19T12:12:10.584Z,10.23
2017-10-19T12:14:38.200Z,9.83
2017-10-19T12:17:05.802Z,10.90
2017-10-19T12:19:33.395Z,11.30
2017-10-19T12:22:00.981Z,10.77
2017-10-19T12:24:28.556Z,10.93
2017-10-19T12:26:56.159Z,9.90
2017-10-19T12:29:23.708Z,10.77
2017-10-19T12:31:52.061Z,10.33
2017-10-19T12:34:19.627Z,9.53
2017-10-19T12:36:47.248Z,9.07
2017-10-19T12:39:14.790Z,8.50
2017-10-19T12:41:43.111Z,7.63
2017-10-19T12:44:10.674Z,7.00
2017-10-19T12:46:38.213Z,8.10
2017-10-19T12:49:05.873Z,8.10
2017-10-19T12:51:33.511Z,8.13
2017-10-19T12:54:01.820Z,8.17
2017-10-19T12:56:30.244Z,8.50
2017-10-19T12:58:57.814Z,11.80
2017-10-19T13:01:25.444Z,11.73
2017-10-19T13:03:53.067Z,11.20
2017-10-19T13:06:20.628Z,11.70
2017-10-19T13:08:49.030Z,10.70
2017-10-19T13:11:17.399Z,11.80
2017-10-19T13:13:44.965Z,12.07
2017-10-19T13:16:12.571Z,11.90
2017-10-19T13:18:41.385Z,11.37
2017-10-19T13:21:09.150Z,11.57
2017-10-19T13:23:36.837Z,10.47
2017-10-19T13:26:04.424Z,11.27
2017-10-19T13:28:33.543Z,11.17
2017-10-19T13:31:01.123Z,10.70
2017-10-19T13:33:29.584Z,11.27
2017-10-19T13:35:57.149Z,10.60
2017-10-19T13:38:25.586Z,11.23
2017-10-19T13:40:53.107Z,11.27
2017-10-19T13:43:21.445Z,11.20
2017-10-19T13:45:49.259Z,12.00
2017-10-19T13:48:17.613Z,11.43
2017-10-19T13:50:45.212Z,11.00
2017-10-19T13:53:13.645Z,11.10
2017-10-19T13:55:42.910Z,11.23
2017-10-19T13:58:13.473Z,9.50
2017-10-19T14:00:45.601Z,9.43
2017-10-19T14:03:13.916Z,8.10
2017-10-19T14:05:41.596Z,7.10
2017-10-19T14:08:09.154Z,7.10
2017-10-19T14:10:36.840Z,6.00
2017-10-19T14:13:04.489Z,7.00
2017-10-19T14:15:33.276Z,6.40
2017-10-19T14:18:00.890Z,6.63
2017-10-19T14:20:28.610Z,6.87
2017-10-19T14:22:57.680Z,6.63
2017-10-19T14:25:26.068Z,6.93
2017-10-19T14:27:54.129Z,6.90
2017-10-19T14:30:22.481Z,6.77
2017-10-19T14:32:50.075Z,6.20
2017-10-19T14:35:18.489Z,5.83
2017-10-19T14:37:46.202Z,5.33
2017-10-19T14:40:13.763Z,5.53
2017-10-19T14:42:41.484Z,5.90
2017-10-19T14:45:10.403Z,6.03
2017-10-19T14:47:37.959Z,5.57
2017-10-19T14:50:06.048Z,5.70
2017-10-19T14:52:33.966Z,5.50
2017-10-19T14:55:03.466Z,5.50
2017-10-19T14:57:31.805Z,5.87
2017-10-19T14:59:59.502Z,5.60
2017-10-19T15:02:27.188Z,5.90
2017-10-19T15:04:55.812Z,6.20
2017-10-19T15:07:23.391Z,5.23
2017-10-19T15:09:50.988Z,4.80
2017-10-19T15:12:18.655Z,5.70
2017-10-19T15:14:47.060Z,5.80
2017-10-19T15:17:14.693Z,5.43
2017-10-19T15:19:42.306Z,5.17
2017-10-19T15:22:11.752Z,6.20
2017-10-19T15:24:39.383Z,5.07
2017-10-19T15:27:07.961Z,5.17
2017-10-19T15:29:35.669Z,5.70
2017-10-19T15:32:03.359Z,5.80
2017-10-19T15:34:30.933Z,4.60
2017-10-19T15:36:58.504Z,5.77
2017-10-19T15:39:26.897Z,5.40
2017-10-19T15:41:54.527Z,5.10
2017-10-19T15:44:22.147Z,5.70
2017-10-19T15:46:49.779Z,6.07
2017-10-19T15:49:17.464Z,5.40
2017-10-19T15:51:46.050Z,5.13
2017-10-19T15:54:13.735Z,5.33
2017-10-19T15:56:41.539Z,5.13
2017-10-19T15:59:10.101Z,5.00
2017-10-19T16:01:37.807Z,5.60
2017-10-19T16:04:06.276Z,4.70
2017-10-19T16:06:33.965Z,5.00
2017-10-19T16:09:01.662Z,4.80
2017-10-19T16:11:29.593Z,5.27
2017-10-19T16:13:57.913Z,5.17
2017-10-19T16:16:25.582Z,5.10
2017-10-19T16:18:53.310Z,5.70
2017-10-19T16:21:21.015Z,5.30
2017-10-19T16:23:48.628Z,5.50
2017-10-19T16:26:16.212Z,5.40
2017-10-19T16:28:44.072Z,5.33
2017-10-19T16:31:11.636Z,5.50
2017-10-19T16:33:39.233Z,5.10
2017-10-19T16:36:06.787Z,5.80
2017-10-19T16:38:34.494Z,4.97
2017-10-19T16:41:02.086Z,5.73
2017-10-19T16:43:29.819Z,5.93
2017-10-19T16:45:57.458Z,5.60
2017-10-19T16:48:25.210Z,5.57
2017-10-19T16:50:52.784Z,5.60
2017-10-19T16:53:20.674Z,5.90
2017-10-19T16:55:48.306Z,5.97
2017-10-19T16:58:16.009Z,5.70
2017-10-19T17:00:43.924Z,6.50
2017-10-19T17:03:12.261Z,5.67
2017-10-19T17:05:39.907Z,5.73
2017-10-19T17:10:52.559Z,6.23
2017-10-19T17:13:27.942Z,4.87
2017-10-19T17:15:56.095Z,5.40
2017-10-19T17:18:23.705Z,5.10
2017-10-19T17:20:51.330Z,5.90
2017-10-19T17:23:20.113Z,5.90
2017-10-19T17:25:47.993Z,5.20
2017-10-19T17:28:16.367Z,5.73
2017-10-19T17:30:45.049Z,5.60
2017-10-19T17:33:13.826Z,5.70
2017-10-19T17:35:42.532Z,5.33
2017-10-19T17:38:11.439Z,5.70
2017-10-19T17:40:41.256Z,5.13
2017-10-19T17:43:16.349Z,6.43
2017-10-19T17:45:46.041Z,4.70
2017-10-19T17:48:15.782Z,5.63
2017-10-19T17:50:44.533Z,5.77
2017-10-19T17:53:12.896Z,5.50
2017-10-19T17:55:40.498Z,5.83
2017-10-19T17:58:08.881Z,4.70
2017-10-19T18:00:39.366Z,5.23
2017-10-19T18:03:09.017Z,5.20
2017-10-19T18:05:37.011Z,4.93
2017-10-19T18:08:04.930Z,6.03
2017-10-19T18:10:32.665Z,5.80
2017-10-19T18:13:00.430Z,6.10
2017-10-19T18:15:28.203Z,5.30
2017-10-19T18:17:55.845Z,5.77
2017-10-19T18:20:23.673Z,5.80
2017-10-19T18:22:51.350Z,6.70
2017-10-19T18:25:19.936Z,6.47
2017-10-19T18:27:48.382Z,5.83
2017-10-19T18:30:15.966Z,5.80
2017-10-19T18:32:43.527Z,6.40
2017-10-19T18:35:11.244Z,6.33
2017-10-19T18:37:38.855Z,6.87
2017-10-19T18:40:06.940Z,6.27
2017-10-19T18:42:34.933Z,6.60
2017-10-19T18:45:03.300Z,5.83
2017-10-19T18:47:32.388Z,6.80
2017-10-19T18:50:00.080Z,7.17
2017-10-19T18:52:27.621Z,6.27
2017-10-19T18:54:55.390Z,6.20
2017-10-19T18:57:22.960Z,6.27
2017-10-19T18:59:54.152Z,6.97
2017-10-19T19:02:24.012Z,6.90
2017-10-19T19:04:54.732Z,7.20
2017-10-19T19:07:22.600Z,7.00
2017-10-19T19:09:50.151Z,7.37
2017-10-19T19:12:20.910Z,6.77
2017-10-19T19:14:50.637Z,6.67
2017-10-19T19:17:18.216Z,6.80
2017-10-19T19:19:45.927Z,6.30
2017-10-19T19:22:14.308Z,7.60
2017-10-19T19:24:42.644Z,7.47
2017-10-19T19:27:10.399Z,6.83
2017-10-19T19:29:38.133Z,6.67
2017-10-19T19:32:05.774Z,7.17
2017-10-19T19:34:33.555Z,7.00
2017-10-19T19:37:01.890Z,8.90
2017-10-19T19:39:29.906Z,7.77
2017-10-19T19:41:57.921Z,8.30
2017-10-19T19:44:26.347Z,8.00
2017-10-19T19:46:53.897Z,7.60
2017-10-19T19:49:21.569Z,7.23
2017-10-19T19:51:49.136Z,8.70
2017-10-19T19:54:16.823Z,7.93
2017-10-19T19:56:45.264Z,8.67
2017-10-19T19:59:12.860Z,7.30
2017-10-19T20:01:40.449Z,11.53
2017-10-19T20:04:10.979Z,9.03
2017-10-19T20:06:38.550Z,9.20
2017-10-19T20:09:07.867Z,10.13
2017-10-19T20:11:36.192Z,8.53
2017-10-19T20:14:03.827Z,9.50
2017-10-19T20:16:33.734Z,8.53
2017-10-19T20:19:02.063Z,9.87
2017-10-19T20:21:31.350Z,11.23
2017-10-19T20:23:59.028Z,11.27
2017-10-19T20:26:26.609Z,11.20
2017-10-19T20:28:54.170Z,8.67
2017-10-19T20:31:21.863Z,9.27
2017-10-19T20:33:53.378Z,8.30
2017-10-19T20:36:24.359Z,10.07
2017-10-19T20:38:56.337Z,11.27
2017-10-19T20:41:30.358Z,10.50
2017-10-19T20:43:58.038Z,10.00
2017-10-19T20:46:25.602Z,11.00
2017-10-19T20:48:53.215Z,9.97
2017-10-19T20:51:20.814Z,12.00
2017-10-19T20:53:49.164Z,11.53
2017-10-19T20:56:16.721Z,11.67
2017-10-19T20:58:44.281Z,9.53
2017-10-19T21:01:11.864Z,11.47
2017-10-19T21:03:39.424Z,12.53
2017-10-19T21:06:07.012Z,11.97
2017-10-19T21:08:34.629Z,11.00
2017-10-19T21:11:02.245Z,11.63
2017-10-19T21:13:30.583Z,11.20
2017-10-19T21:15:58.225Z,13.10
2017-10-19T21:18:25.833Z,12.83
2017-10-19T21:20:53.429Z,13.40
2017-10-19T21:23:22.769Z,13.00
2017-10-19T21:25:50.361Z,12.67
2017-10-19T21:28:17.953Z,13.03
2017-10-19T21:30:45.528Z,11.10
2017-10-19T21:33:13.559Z,13.13
2017-10-19T21:35:41.301Z,12.30
2017-10-19T21:38:08.883Z,14.23
2017-10-19T21:40:36.715Z,15.00
2017-10-19T21:43:04.338Z,13.60
2017-10-19T21:45:31.963Z,13.43
2017-10-19T21:47:59.531Z,13.23
2017-10-19T21:50:28.202Z,13.23
2017-10-19T21:52:55.830Z,12.60
2017-10-19T21:55:25.232Z,12.57
2017-10-19T21:57:52.806Z,12.33
2017-10-19T22:00:20.833Z,12.57
2017-10-19T22:02:48.463Z,12.87
2017-10-19T22:05:17.028Z,13.30
2017-10-19T22:07:44.723Z,12.50
2017-10-19T22:10:12.455Z,12.13
2017-10-19T22:12:40.032Z,12.40
2017-10-19T22:15:07.589Z,12.37
2017-10-19T22:17:35.167Z,12.80
2017-10-19T22:20:02.798Z,12.30
2017-10-19T22:22:30.421Z,12.30
2017-10-19T22:24:58.809Z,11.20
2017-10-19T22:27:26.377Z,11.13
2017-10-19T22:29:54.715Z,13.33
2017-10-19T22:32:23.078Z,13.23
2017-10-19T22:34:51.446Z,15.00
2017-10-19T22:37:19.005Z,13.57
2017-10-19T22:39:46.601Z,13.00
2017-10-19T22:42:14.186Z,11.70
2017-10-19T22:44:41.800Z,12.37
2017-10-19T22:47:10.158Z,12.87
2017-10-19T22:49:37.700Z,15.90
2017-10-19T22:52:05.313Z,14.73
2017-10-19T22:54:33.629Z,14.17
2017-10-19T22:57:01.261Z,13.00
2017-10-19T22:59:29.779Z,12.80
2017-10-19T23:01:57.350Z,13.17
2017-10-19T23:04:24.930Z,13.80
2017-10-19T23:06:52.573Z,14.70
2017-10-19T23:09:20.132Z,16.80
2017-10-19T23:11:47.814Z,16.77
2017-10-19T23:14:15.420Z,17.03
2017-10-19T23:16:43.807Z,14.83
2017-10-19T23:19:11.404Z,14.93
2017-10-19T23:21:38.996Z,14.87
2017-10-19T23:24:06.568Z,13.70
2017-10-19T23:26:34.128Z,13.13
2017-10-19T23:29:01.741Z,12.43
2017-10-19T23:31:29.304Z,13.30
2017-10-19T23:33:57.642Z,12.50
2017-10-19T23:36:25.212Z,13.60
2017-10-19T23:38:52.737Z,14.27
2017-10-19T23:41:20.291Z,14.20
2017-10-19T23:43:47.886Z,16.77
2017-10-19T23:46:16.470Z,16.33
2017-10-19T23:48:44.062Z,15.83
2017-10-19T23:51:11.693Z,14.83
2017-10-19T23:53:39.371Z,14.67
2017-10-19T23:56:06.937Z,15.53
2017-10-19T23:58:34.498Z,16.50
